Osorio, Brazil
Current Conditions -  °F | °C
As of 11:00 AM on Thursday 18 Dec 2014 (Local Time) from SBCO Reporting Station
Few Clouds Few Clouds  
Wind Chill: 81°   Ceiling: Unl
Heat Index: 82°   Visibility: 6mi
Dew Point: 63°   Wind: 5mph
Humidity: 54%   Direction: 260°W
Pressure: 29.88"   Gusts: NA
Location:  29.89°S, 50.27°W
Report Text: SBCO 181300Z 26004KT 9999 FEW027 27/17 Q1012
Loading
Personal Weather Stations






























Interactive Weather Map New forecast layout! Learn more

10-Day Weather Forecast

Advertisements
Track Severe Weather on mobile